createdAt,value
2023-01-19T00:00:25.103Z,53.24
2023-01-19T00:01:25.007Z,53.23
2023-01-19T00:02:24.995Z,52.33
2023-01-19T00:03:24.925Z,53.83
2023-01-19T00:04:24.871Z,56.43
2023-01-19T00:05:24.852Z,57.46
2023-01-19T00:06:24.792Z,55.04
2023-01-19T00:07:24.742Z,52.26
2023-01-19T04:23:43.079Z,30.01
2023-01-19T04:24:43.039Z,29.62
2023-01-19T04:25:43.028Z,28.06
2023-01-19T04:26:43.009Z,30.66
2023-01-19T04:27:42.992Z,28.86
2023-01-19T04:28:42.992Z,29.96
2023-01-19T04:29:42.955Z,28.33
2023-01-19T04:30:42.938Z,27.38
2023-01-19T04:31:42.920Z,29.45
2023-01-19T04:32:42.908Z,28.45
2023-01-19T04:33:42.888Z,29.33
2023-01-19T04:34:42.865Z,30.72
2023-01-19T04:35:42.845Z,30.49
2023-01-19T04:36:42.835Z,29.59
2023-01-19T04:37:42.806Z,27.96
2023-01-19T04:38:42.808Z,26.78
2023-01-19T06:03:41.103Z,28.74
2023-01-19T06:04:41.001Z,28.37
2023-01-19T06:05:40.996Z,32.05
2023-01-19T06:06:40.961Z,30.19
2023-01-19T06:07:40.943Z,29.76
2023-01-19T06:08:40.928Z,27.32
2023-01-19T06:09:40.914Z,26.60
2023-01-19T06:10:40.907Z,32.35
2023-01-19T06:11:40.888Z,30.20
2023-01-19T06:12:40.996Z,27.93
2023-01-19T06:13:42.122Z,29.52
2023-01-19T06:14:40.867Z,32.61
2023-01-19T06:15:40.831Z,28.18
2023-01-19T06:17:40.803Z,28.57
2023-01-19T06:19:40.761Z,30.52
2023-01-19T06:20:40.734Z,29.46
2023-01-19T06:21:40.718Z,34.42
2023-01-19T06:22:40.706Z,79.26
2023-01-19T06:24:40.663Z,114.92
2023-01-19T06:25:40.632Z,99.63
2023-01-19T06:26:40.629Z,95.36
2023-01-19T06:27:40.609Z,89.00
2023-01-19T06:29:40.567Z,88.39
2023-01-19T06:30:40.608Z,89.07
2023-01-19T06:31:40.574Z,90.91
2023-01-19T06:32:40.518Z,91.68
2023-01-19T06:33:40.497Z,125.35
2023-01-19T06:34:40.479Z,117.41
2023-01-19T06:35:40.456Z,111.53
2023-01-19T06:36:40.442Z,112.84
2023-01-19T06:37:40.553Z,110.96
2023-01-19T06:38:40.416Z,109.22
2023-01-19T06:39:40.553Z,113.82
2023-01-19T06:40:40.373Z,114.61
2023-01-19T06:41:40.368Z,118.49
2023-01-19T06:42:40.341Z,116.96
2023-01-19T06:43:40.329Z,117.75
2023-01-19T06:44:40.554Z,119.26
2023-01-19T06:45:40.406Z,122.44
2023-01-19T06:46:40.309Z,120.39
2023-01-19T06:47:40.695Z,127.62
2023-01-19T06:48:40.278Z,130.00
2023-01-19T06:49:40.558Z,127.32
2023-01-19T06:50:40.182Z,130.43
2023-01-19T06:52:40.150Z,134.88
2023-01-19T06:54:40.109Z,138.53
2023-01-19T06:55:41.061Z,140.43
2023-01-19T06:57:40.013Z,139.00
2023-01-19T06:58:39.998Z,142.77
2023-01-19T06:59:40.786Z,148.70
2023-01-19T07:00:39.947Z,160.75
2023-01-19T07:01:40.083Z,173.25
2023-01-19T07:02:40.047Z,180.81
2023-01-19T07:03:40.062Z,183.18
2023-01-19T07:04:39.849Z,193.28
2023-01-19T07:05:39.828Z,199.12
2023-01-19T07:06:55.420Z,204.45
2023-01-19T07:07:40.092Z,204.90
2023-01-19T07:09:39.741Z,205.24
2023-01-19T07:11:22.287Z,207.74
2023-01-19T07:11:39.687Z,205.49
2023-01-19T07:12:40.063Z,209.30
2023-01-19T07:13:39.636Z,214.94
2023-01-19T07:14:39.797Z,222.77
2023-01-19T07:15:39.603Z,237.43
2023-01-19T07:16:39.609Z,246.08
2023-01-19T07:17:39.571Z,246.53
2023-01-19T07:19:39.489Z,250.00
2023-01-19T07:20:39.472Z,242.74
2023-01-19T07:23:39.388Z,246.47
2023-01-19T07:24:39.358Z,240.96
2023-01-19T07:25:39.409Z,249.77
2023-01-19T07:26:39.307Z,248.86
2023-01-19T07:27:39.651Z,241.57
2023-01-19T07:28:39.287Z,247.86
2023-01-19T07:29:39.320Z,199.36
2023-01-19T07:30:39.415Z,167.20
2023-01-19T07:31:39.823Z,161.07
2023-01-19T07:32:39.189Z,142.47
2023-01-19T07:33:39.167Z,129.94
2023-01-19T07:34:39.231Z,124.50
2023-01-19T07:35:39.196Z,106.14
2023-01-19T07:36:39.220Z,93.87
2023-01-19T07:37:39.612Z,85.82
2023-01-19T07:38:39.622Z,80.46
2023-01-19T07:39:39.277Z,71.38
2023-01-19T07:40:39.274Z,61.32
2023-01-19T07:41:55.661Z,50.40
2023-01-19T07:43:39.391Z,50.90
2023-01-19T07:44:39.421Z,52.61
2023-01-19T07:45:39.830Z,57.93
2023-01-19T07:47:39.493Z,89.29
2023-01-19T07:48:39.472Z,90.13
2023-01-19T07:49:39.490Z,93.24
2023-01-19T07:50:39.631Z,102.75
2023-01-19T07:51:39.602Z,108.11
2023-01-19T07:53:42.841Z,113.74
2023-01-19T07:54:39.443Z,113.89
2023-01-19T07:55:39.433Z,116.31
2023-01-19T07:58:39.618Z,120.47
2023-01-19T08:00:39.401Z,147.58
2023-01-19T08:01:39.579Z,170.41
2023-01-19T08:02:39.362Z,179.20
2023-01-19T08:03:39.620Z,183.04
2023-01-19T08:04:39.596Z,186.96
2023-01-19T08:05:39.360Z,189.77
2023-01-19T08:06:39.388Z,193.59
2023-01-19T08:07:39.250Z,198.45
2023-01-19T08:09:39.210Z,204.85
2023-01-19T08:10:39.370Z,206.98
2023-01-19T08:11:39.281Z,211.16
2023-01-19T08:12:39.764Z,215.75
2023-01-19T08:13:39.147Z,220.60
2023-01-19T08:14:39.058Z,216.65
2023-01-19T08:15:39.076Z,219.61
2023-01-19T08:17:39.015Z,228.15
2023-01-19T08:18:40.140Z,228.37
2023-01-19T08:19:41.365Z,227.66
2023-01-19T08:20:39.908Z,238.11
2023-01-19T08:23:39.214Z,232.67
2023-01-19T08:24:38.819Z,232.87
2023-01-19T08:25:38.831Z,234.20
2023-01-19T08:26:39.783Z,236.68
2023-01-19T08:27:38.728Z,241.48
2023-01-19T08:28:39.137Z,245.52
2023-01-19T08:29:38.682Z,245.94
2023-01-19T08:30:38.757Z,250.00
2023-01-19T08:32:38.607Z,250.94
2023-01-19T08:33:38.773Z,249.96
2023-01-19T08:34:38.513Z,249.66
2023-01-19T08:35:38.479Z,243.05
2023-01-19T08:36:38.490Z,238.79
2023-01-19T08:37:39.390Z,250.54
2023-01-19T08:38:38.695Z,248.05
2023-01-19T08:39:38.410Z,250.47
2023-01-19T08:40:38.351Z,247.59
2023-01-19T08:41:38.320Z,250.00
2023-01-19T08:42:38.283Z,250.00
2023-01-19T08:43:38.725Z,250.00
2023-01-19T08:44:46.637Z,249.44
2023-01-19T08:45:38.219Z,249.65
2023-01-19T08:46:38.231Z,246.69
2023-01-19T08:47:38.145Z,244.16
2023-01-19T08:48:39.817Z,243.71
2023-01-19T08:49:38.349Z,246.59
2023-01-19T08:50:38.008Z,251.11
2023-01-19T08:51:37.967Z,253.44
2023-01-19T08:52:37.901Z,256.78
2023-01-19T08:53:37.902Z,260.76
2023-01-19T08:54:38.174Z,248.45
2023-01-19T08:55:37.811Z,247.04
2023-01-19T08:56:38.018Z,250.06
2023-01-19T08:57:37.755Z,247.33
2023-01-19T08:59:38.136Z,247.38
2023-01-19T09:00:37.622Z,247.58
2023-01-19T09:01:37.850Z,247.87
2023-01-19T09:02:37.732Z,250.24
2023-01-19T09:03:37.496Z,251.13
2023-01-19T09:04:37.612Z,249.24
2023-01-19T09:05:37.470Z,249.12
2023-01-19T09:06:37.376Z,245.89
2023-01-19T09:07:37.363Z,247.18
2023-01-19T09:08:37.304Z,247.26
2023-01-19T09:09:37.656Z,247.13
2023-01-19T09:10:37.262Z,247.25
2023-01-19T09:11:37.162Z,249.27
2023-01-19T09:12:37.606Z,248.03
2023-01-19T09:13:37.076Z,246.39
2023-01-19T09:14:37.611Z,248.76
2023-01-19T09:15:36.986Z,248.65
2023-01-19T09:16:36.950Z,246.61
2023-01-19T09:17:36.923Z,245.18
2023-01-19T09:18:36.850Z,247.68
2023-01-19T09:19:36.827Z,248.28
2023-01-19T09:20:36.762Z,248.79
2023-01-19T09:21:36.717Z,246.90
2023-01-19T09:22:37.113Z,247.15
2023-01-19T09:23:36.649Z,250.00
2023-01-19T09:24:36.594Z,249.71
2023-01-19T09:25:36.566Z,248.46
2023-01-19T09:26:36.557Z,250.00
2023-01-19T09:27:36.615Z,247.53
2023-01-19T09:28:36.597Z,248.31
2023-01-19T09:29:36.353Z,248.19
2023-01-19T09:30:36.752Z,248.04
2023-01-19T09:31:36.334Z,249.31
2023-01-19T09:32:36.840Z,250.00
2023-01-19T09:33:36.180Z,249.64
2023-01-19T09:34:37.115Z,247.62
2023-01-19T09:35:36.116Z,245.19
2023-01-19T09:36:36.056Z,247.49
2023-01-19T09:37:35.994Z,248.29
2023-01-19T09:38:35.949Z,248.11
2023-01-19T09:39:35.929Z,248.99
2023-01-19T09:40:41.331Z,249.70
2023-01-19T09:41:35.800Z,249.79
2023-01-19T09:42:35.852Z,249.89
2023-01-19T09:43:35.734Z,245.99
2023-01-19T09:44:35.696Z,247.26
2023-01-19T09:45:35.628Z,243.14
2023-01-19T09:46:36.373Z,241.92
2023-01-19T09:47:35.631Z,241.75
2023-01-19T09:48:35.481Z,241.09
2023-01-19T09:49:35.438Z,239.32
2023-01-19T09:50:35.396Z,237.55
2023-01-19T09:51:36.262Z,235.29
2023-01-19T09:52:35.626Z,233.38
2023-01-19T09:53:35.250Z,233.57
2023-01-19T09:54:35.206Z,229.22
2023-01-19T09:55:35.157Z,230.61
2023-01-19T09:56:35.168Z,229.48
2023-01-19T09:57:35.140Z,228.06
2023-01-19T09:58:35.044Z,227.74
2023-01-19T09:59:34.978Z,226.04
2023-01-19T10:00:35.191Z,225.43
2023-01-19T10:01:35.488Z,223.51
2023-01-19T10:02:34.878Z,222.63
2023-01-19T10:03:34.790Z,222.01
2023-01-19T10:04:34.753Z,218.39
2023-01-19T10:05:35.131Z,219.34
2023-01-19T10:06:35.142Z,217.13
2023-01-19T10:07:34.626Z,216.46
2023-01-19T10:08:34.587Z,216.04
2023-01-19T10:09:34.535Z,215.12
2023-01-19T10:10:34.650Z,213.46
2023-01-19T10:11:42.165Z,212.91
2023-01-19T10:12:34.402Z,213.12
2023-01-19T10:13:34.352Z,213.23
2023-01-19T10:14:34.332Z,209.39
2023-01-19T10:15:34.637Z,212.12
2023-01-19T10:16:34.214Z,210.66
2023-01-19T10:17:34.177Z,206.38
2023-01-19T10:18:34.143Z,206.57
2023-01-19T10:19:34.091Z,206.77
2023-01-19T10:20:34.046Z,202.91
2023-01-19T10:21:34.137Z,202.27
2023-01-19T10:22:33.961Z,202.34
2023-01-19T10:23:33.932Z,202.05
2023-01-19T10:24:33.878Z,200.93
2023-01-19T10:25:33.899Z,200.81
2023-01-19T10:26:34.140Z,200.24
2023-01-19T10:27:33.753Z,199.21
2023-01-19T10:28:33.726Z,198.56
2023-01-19T10:29:33.712Z,197.22
2023-01-19T10:30:33.769Z,195.25
2023-01-19T10:31:33.723Z,195.38
2023-01-19T10:32:33.574Z,195.60
2023-01-19T10:33:33.542Z,194.43
2023-01-19T10:34:33.483Z,192.54
2023-01-19T10:35:33.450Z,191.96
2023-01-19T10:36:33.657Z,192.48
2023-01-19T10:37:34.364Z,192.42
2023-01-19T10:38:33.395Z,191.45
2023-01-19T10:39:37.987Z,190.66
2023-01-19T10:40:33.648Z,190.92
2023-01-19T10:41:33.675Z,190.92
2023-01-19T10:42:33.185Z,191.11
2023-01-19T10:43:33.203Z,189.84
2023-01-19T10:44:33.152Z,187.98
2023-01-19T10:45:34.847Z,187.96
2023-01-19T10:46:33.234Z,188.05
2023-01-19T10:47:33.002Z,188.36
2023-01-19T10:48:32.946Z,188.22
2023-01-19T10:49:33.178Z,185.13
2023-01-19T10:50:33.224Z,188.14
2023-01-19T10:51:32.837Z,185.76
2023-01-19T10:52:32.840Z,186.64
2023-01-19T10:53:32.763Z,184.57
2023-01-19T10:54:32.796Z,184.01
2023-01-19T10:55:32.775Z,182.09
2023-01-19T10:56:32.679Z,182.61
2023-01-19T10:57:33.283Z,182.40
2023-01-19T10:58:32.562Z,182.51
2023-01-19T10:59:32.727Z,180.66
2023-01-19T11:00:32.628Z,182.12
2023-01-19T11:01:32.822Z,180.53
2023-01-19T11:02:32.643Z,181.63
2023-01-19T11:03:32.436Z,180.01
2023-01-19T11:04:32.351Z,177.54
2023-01-19T11:05:32.311Z,178.14
2023-01-19T11:06:32.658Z,179.24
2023-01-19T11:07:32.236Z,177.92
2023-01-19T11:08:32.216Z,177.78
2023-01-19T11:09:32.217Z,177.83
2023-01-19T11:10:32.131Z,177.93
2023-01-19T11:11:32.156Z,178.74
2023-01-19T11:12:32.170Z,176.33
2023-01-19T11:13:32.053Z,176.29
2023-01-19T11:14:31.983Z,175.37
2023-01-19T11:15:31.942Z,175.09
2023-01-19T11:16:32.224Z,173.96
2023-01-19T11:17:31.871Z,174.59
2023-01-19T11:18:31.872Z,174.54
2023-01-19T11:19:31.784Z,175.43
2023-01-19T11:20:31.750Z,174.08
2023-01-19T11:21:32.192Z,175.41
2023-01-19T11:22:31.693Z,174.73
2023-01-19T11:23:31.634Z,174.03
2023-01-19T11:24:31.596Z,176.80
2023-01-19T11:25:31.563Z,173.53
2023-01-19T11:26:31.694Z,172.63
2023-01-19T11:27:31.738Z,175.07
2023-01-19T11:28:31.475Z,187.78
2023-01-19T11:29:31.438Z,175.70
2023-01-19T11:30:31.359Z,186.78
2023-01-19T11:31:31.714Z,185.65
2023-01-19T11:32:33.155Z,177.56
2023-01-19T11:33:31.266Z,181.95
2023-01-19T11:34:31.351Z,189.02
2023-01-19T11:35:31.300Z,179.79
2023-01-19T11:36:31.353Z,183.54
2023-01-19T11:37:31.476Z,182.20
2023-01-19T11:38:31.312Z,183.05
2023-01-19T11:39:31.248Z,181.50
2023-01-19T11:40:30.946Z,186.19
2023-01-19T11:41:30.908Z,185.15
2023-01-19T11:42:31.174Z,204.81
2023-01-19T11:43:43.487Z,194.11
2023-01-19T11:44:30.774Z,194.53
2023-01-19T11:45:31.199Z,195.33
2023-01-19T11:46:30.676Z,194.21
2023-01-19T11:47:30.648Z,195.36
2023-01-19T11:48:30.581Z,206.07
2023-01-19T11:49:30.671Z,201.88
2023-01-19T11:50:30.526Z,195.04
2023-01-19T11:51:30.457Z,198.18
2023-01-19T11:52:30.415Z,206.22
2023-01-19T11:53:30.391Z,199.84
2023-01-19T11:54:30.419Z,207.22
2023-01-19T11:55:30.313Z,217.63
2023-01-19T11:56:30.263Z,204.54
2023-01-19T11:57:30.206Z,209.77
2023-01-19T11:58:31.152Z,213.21
2023-01-19T11:59:30.119Z,214.27
2023-01-19T12:00:30.099Z,211.36
2023-01-19T12:01:30.039Z,213.71
2023-01-19T12:02:30.317Z,240.79
2023-01-19T12:03:30.074Z,230.47
2023-01-19T12:04:29.894Z,226.89
2023-01-19T12:05:29.864Z,222.72
2023-01-19T12:06:29.869Z,219.38
2023-01-19T12:07:30.249Z,218.06
2023-01-19T12:08:29.782Z,218.63
2023-01-19T12:09:29.719Z,221.37
2023-01-19T12:10:29.658Z,221.76
2023-01-19T12:11:29.603Z,222.65
2023-01-19T12:12:29.712Z,224.18
2023-01-19T12:13:29.520Z,222.78
2023-01-19T12:14:29.476Z,225.11
2023-01-19T12:15:29.437Z,224.74
2023-01-19T12:16:29.445Z,225.56
2023-01-19T12:17:29.703Z,227.44
2023-01-19T12:18:29.312Z,226.34
2023-01-19T12:19:30.185Z,226.14
2023-01-19T12:20:29.218Z,227.44
2023-01-19T12:21:29.184Z,227.11
2023-01-19T12:22:29.174Z,226.84
2023-01-19T12:23:29.091Z,231.67
2023-01-19T12:24:29.187Z,232.84
2023-01-19T12:25:28.994Z,234.77
2023-01-19T12:26:28.962Z,237.61
2023-01-19T12:27:28.904Z,237.83
2023-01-19T12:28:28.845Z,241.66
2023-01-19T12:29:28.819Z,247.58
2023-01-19T12:30:28.810Z,249.52
2023-01-19T12:31:28.934Z,249.82
2023-01-19T12:32:28.710Z,250.00
2023-01-19T12:33:28.610Z,248.54
2023-01-19T12:34:28.568Z,249.63
2023-01-19T12:35:28.525Z,248.39
2023-01-19T12:36:28.466Z,247.83
2023-01-19T12:37:28.455Z,246.90
2023-01-19T12:38:28.799Z,250.00
2023-01-19T12:39:28.329Z,248.56
2023-01-19T12:40:28.279Z,250.00
2023-01-19T12:41:28.222Z,248.61
2023-01-19T12:42:28.219Z,247.12
2023-01-19T12:43:28.127Z,248.18
2023-01-19T12:44:28.072Z,248.33
2023-01-19T12:45:28.018Z,247.24
2023-01-19T12:46:27.998Z,249.14
2023-01-19T12:47:27.924Z,250.00
2023-01-19T12:48:27.876Z,249.10
2023-01-19T12:49:27.821Z,217.39
2023-01-19T12:50:28.193Z,192.23
2023-01-19T12:51:27.730Z,176.97
2023-01-19T12:52:27.712Z,165.68
2023-01-19T12:53:27.690Z,160.60
2023-01-19T12:54:27.732Z,149.52
2023-01-19T12:55:27.587Z,145.71
2023-01-19T12:56:27.569Z,136.52
2023-01-19T12:57:27.521Z,129.96
2023-01-19T12:58:27.696Z,129.15
2023-01-19T12:59:27.464Z,119.20
2023-01-19T13:00:27.442Z,110.08
2023-01-19T13:01:27.544Z,107.98
2023-01-19T13:02:27.463Z,103.36
2023-01-19T13:03:27.729Z,102.29
2023-01-19T13:04:27.353Z,97.06
2023-01-19T13:05:27.330Z,97.54
2023-01-19T13:06:27.695Z,96.64
2023-01-19T13:07:27.293Z,94.15
2023-01-19T13:08:27.695Z,89.77
2023-01-19T13:09:27.259Z,90.30
2023-01-19T13:10:27.256Z,111.21
2023-01-19T13:11:31.374Z,116.42
2023-01-19T13:12:27.185Z,116.60
2023-01-19T13:13:27.199Z,117.55
2023-01-19T13:14:27.233Z,119.60
2023-01-19T13:15:27.149Z,122.00
2023-01-19T13:16:27.199Z,123.24
2023-01-19T13:17:27.061Z,134.56
2023-01-19T13:18:27.230Z,134.22
2023-01-19T13:19:27.148Z,130.10
2023-01-19T13:20:26.969Z,130.87
2023-01-19T13:21:26.935Z,134.77
2023-01-19T13:22:27.221Z,138.94
2023-01-19T13:23:26.868Z,142.54
2023-01-19T13:24:26.816Z,149.03
2023-01-19T13:25:26.783Z,149.84
2023-01-19T13:26:27.242Z,150.18
2023-01-19T13:27:26.692Z,154.08
2023-01-19T13:28:26.660Z,155.81
2023-01-19T13:29:26.618Z,158.47
2023-01-19T13:30:26.630Z,159.52
2023-01-19T13:31:26.809Z,170.00
2023-01-19T13:32:26.499Z,167.31
2023-01-19T13:33:26.474Z,168.41
2023-01-19T13:34:26.428Z,170.33
2023-01-19T13:35:26.394Z,172.76
2023-01-19T13:36:26.345Z,171.69
2023-01-19T13:37:26.313Z,175.11
2023-01-19T13:38:26.283Z,185.91
2023-01-19T13:39:26.217Z,188.05
2023-01-19T13:40:26.350Z,187.13
2023-01-19T13:41:26.140Z,187.11
2023-01-19T13:42:26.146Z,189.21
2023-01-19T13:43:26.066Z,191.24
2023-01-19T13:44:25.998Z,189.99
2023-01-19T13:45:25.951Z,192.05
2023-01-19T13:46:25.941Z,195.25
2023-01-19T13:47:25.863Z,196.00
2023-01-19T13:48:26.292Z,195.43
2023-01-19T13:49:25.757Z,196.76
2023-01-19T13:50:25.709Z,198.73
2023-01-19T13:51:25.657Z,201.14
2023-01-19T13:52:25.713Z,200.67
2023-01-19T13:53:27.203Z,203.48
2023-01-19T13:54:25.654Z,205.45
2023-01-19T13:55:25.606Z,206.05
2023-01-19T13:56:25.595Z,203.56
2023-01-19T13:57:29.780Z,203.67
2023-01-19T13:58:25.456Z,203.91
2023-01-19T13:59:25.411Z,204.92
2023-01-19T14:00:25.349Z,206.40
2023-01-19T14:01:28.675Z,208.42
2023-01-19T14:02:25.469Z,204.10
2023-01-19T14:03:25.240Z,205.12
2023-01-19T14:04:25.201Z,208.22
2023-01-19T14:05:25.138Z,211.51
2023-01-19T14:06:25.102Z,217.50
2023-01-19T14:07:25.858Z,216.78
2023-01-19T14:08:25.226Z,218.74
2023-01-19T14:09:24.902Z,218.95
2023-01-19T14:10:25.254Z,219.61
2023-01-19T14:11:24.852Z,220.99
2023-01-19T14:12:24.743Z,222.92
2023-01-19T14:13:24.759Z,224.20
2023-01-19T14:14:24.651Z,225.37
2023-01-19T14:15:24.583Z,225.33
2023-01-19T14:16:24.773Z,226.45
2023-01-19T14:17:24.481Z,223.56
2023-01-19T14:18:24.440Z,223.18
2023-01-19T14:19:24.465Z,223.38
2023-01-19T14:20:24.318Z,222.91
2023-01-19T14:21:24.747Z,224.03
2023-01-19T14:22:24.194Z,224.96
2023-01-19T14:23:24.210Z,207.43
2023-01-19T14:24:24.125Z,173.30
2023-01-19T14:25:24.046Z,149.49
2023-01-19T14:26:24.001Z,140.53
2023-01-19T14:27:23.961Z,127.70
2023-01-19T14:28:23.934Z,121.29
2023-01-19T14:29:24.661Z,111.35
2023-01-19T14:30:23.919Z,101.78
2023-01-19T14:31:23.884Z,93.66
2023-01-19T14:32:23.829Z,87.37
2023-01-19T14:33:23.792Z,78.15
2023-01-19T14:34:23.775Z,75.26
2023-01-19T14:35:23.748Z,69.05
2023-01-19T14:36:23.727Z,67.08
2023-01-19T14:37:23.702Z,57.75
2023-01-19T14:38:23.732Z,55.92
2023-01-19T14:39:23.738Z,52.71
2023-01-19T14:40:23.644Z,49.47
2023-01-19T14:41:23.749Z,46.12
2023-01-19T14:42:23.621Z,42.62
2023-01-19T14:43:23.570Z,39.38
2023-01-19T14:44:23.551Z,38.59
2023-01-19T14:45:23.559Z,34.79
2023-01-19T14:46:23.768Z,32.40
2023-01-19T14:47:23.510Z,27.84
2023-01-19T14:48:23.481Z,25.31
2023-01-19T14:49:23.470Z,25.46
2023-01-19T14:50:26.696Z,28.00
2023-01-19T14:51:23.463Z,27.22
2023-01-19T14:52:23.460Z,22.59
2023-01-19T14:53:23.430Z,19.19
2023-01-19T14:54:23.412Z,15.65
2023-01-19T14:55:23.397Z,25.20
2023-01-19T14:56:23.393Z,32.05
2023-01-19T14:57:23.375Z,33.27
2023-01-19T14:58:23.351Z,37.98
2023-01-19T14:59:23.415Z,43.18
2023-01-19T15:00:23.316Z,48.15
2023-01-19T15:01:23.950Z,48.38
2023-01-19T15:02:23.314Z,51.39
2023-01-19T15:03:26.835Z,58.87
2023-01-19T15:04:23.198Z,59.24
2023-01-19T15:05:23.270Z,59.79
2023-01-19T15:06:23.122Z,61.61
2023-01-19T15:07:23.108Z,67.68
2023-01-19T15:08:23.062Z,73.14
2023-01-19T15:09:23.033Z,78.31
2023-01-19T15:10:22.983Z,79.55
2023-01-19T15:11:22.946Z,84.98
2023-01-19T15:12:22.906Z,86.50
2023-01-19T15:13:22.873Z,89.40
2023-01-19T15:14:22.838Z,90.98
2023-01-19T15:15:22.818Z,95.04
2023-01-19T15:16:22.783Z,98.71
2023-01-19T15:17:22.723Z,97.58
2023-01-19T15:18:22.658Z,101.71
2023-01-19T15:19:23.172Z,105.10
2023-01-19T15:20:22.745Z,106.23
2023-01-19T15:21:22.524Z,104.44
2023-01-19T15:22:22.474Z,106.56
2023-01-19T15:23:22.429Z,110.13
2023-01-19T15:24:22.745Z,112.97
2023-01-19T15:25:22.338Z,115.69
2023-01-19T15:26:22.279Z,115.81
2023-01-19T15:27:22.234Z,119.56
2023-01-19T15:28:22.186Z,121.39
2023-01-19T15:29:22.145Z,122.07
2023-01-19T15:30:22.169Z,125.70
2023-01-19T15:31:22.096Z,126.57
2023-01-19T15:32:21.985Z,129.15
2023-01-19T15:33:21.992Z,131.45
2023-01-19T15:34:21.893Z,132.71
2023-01-19T15:35:21.873Z,136.77
2023-01-19T15:36:21.820Z,135.74
2023-01-19T15:37:21.758Z,136.37
2023-01-19T15:38:21.715Z,136.41
2023-01-19T15:39:21.673Z,135.15
2023-01-19T15:40:21.786Z,132.81
2023-01-19T15:41:23.332Z,135.65
2023-01-19T15:42:21.536Z,139.09
2023-01-19T15:43:21.486Z,138.02
2023-01-19T15:44:21.444Z,134.71
2023-01-19T15:45:21.907Z,133.88
2023-01-19T15:46:21.365Z,131.44
2023-01-19T15:47:21.330Z,131.08
2023-01-19T15:48:21.290Z,133.08
2023-01-19T15:49:21.359Z,131.37
2023-01-19T15:50:21.191Z,127.00
2023-01-19T15:51:21.164Z,127.36
2023-01-19T15:52:21.107Z,130.37
2023-01-19T15:53:21.081Z,130.41
2023-01-19T15:54:21.034Z,129.23
2023-01-19T15:55:20.993Z,130.23
2023-01-19T15:56:20.973Z,128.07
2023-01-19T15:57:20.904Z,129.51
2023-01-19T15:58:20.876Z,126.34
2023-01-19T15:59:20.825Z,127.49
2023-01-19T16:00:20.784Z,126.00
2023-01-19T16:01:20.901Z,125.80
2023-01-19T16:02:20.774Z,125.55
2023-01-19T16:03:20.666Z,124.57
2023-01-19T16:04:20.634Z,125.81
2023-01-19T16:05:21.593Z,126.74
2023-01-19T16:06:20.562Z,126.85
2023-01-19T16:07:20.536Z,123.75
2023-01-19T16:08:20.484Z,123.65
2023-01-19T16:09:20.440Z,119.96
2023-01-19T16:10:20.406Z,121.12
2023-01-19T16:11:20.375Z,121.69
2023-01-19T16:12:20.343Z,121.68
2023-01-19T16:13:20.304Z,120.98
2023-01-19T16:14:20.276Z,120.76
2023-01-19T16:15:20.247Z,121.65
2023-01-19T16:16:20.263Z,122.09
2023-01-19T16:17:20.177Z,119.93
2023-01-19T16:18:20.135Z,120.80
2023-01-19T16:19:20.087Z,123.24
2023-01-19T16:20:20.061Z,120.79
2023-01-19T16:21:20.329Z,119.24
2023-01-19T16:22:19.989Z,117.46
2023-01-19T16:23:19.963Z,115.09
2023-01-19T16:24:19.919Z,117.95
2023-01-19T16:25:19.885Z,114.87
2023-01-19T16:26:19.854Z,110.59
2023-01-19T16:27:19.809Z,116.49
2023-01-19T16:28:19.771Z,112.78
2023-01-19T16:29:19.749Z,110.88
2023-01-19T16:30:19.786Z,110.84
2023-01-19T16:31:19.699Z,109.75
2023-01-19T16:32:19.627Z,111.87
2023-01-19T16:33:19.598Z,111.44
2023-01-19T16:34:19.561Z,109.44
2023-01-19T16:35:19.548Z,109.78
2023-01-19T16:36:19.773Z,110.04
2023-01-19T16:37:19.481Z,110.76
2023-01-19T16:38:19.418Z,109.07
2023-01-19T16:39:19.374Z,108.94
2023-01-19T16:40:19.334Z,110.45
2023-01-19T16:41:19.310Z,107.24
2023-01-19T16:42:19.261Z,105.72
2023-01-19T16:43:19.219Z,105.59
2023-01-19T16:44:19.196Z,102.08
2023-01-19T16:45:19.151Z,103.12
2023-01-19T16:46:19.119Z,102.95
2023-01-19T16:47:19.069Z,101.41
2023-01-19T16:48:19.036Z,100.62
2023-01-19T16:49:19.013Z,101.35
2023-01-19T16:50:19.018Z,104.13
2023-01-19T16:51:18.938Z,101.57
2023-01-19T16:52:18.894Z,103.39
2023-01-19T16:53:17.896Z,100.65
2023-01-19T16:54:18.815Z,95.01
2023-01-19T16:55:18.783Z,100.05
2023-01-19T16:56:18.755Z,93.77
2023-01-19T16:57:18.706Z,94.88
2023-01-19T16:58:18.672Z,92.78
2023-01-19T16:59:18.639Z,96.22
2023-01-19T17:00:19.275Z,94.86
2023-01-19T17:01:20.151Z,95.68
2023-01-19T17:02:18.522Z,89.86
2023-01-19T17:03:18.488Z,92.22
2023-01-19T17:04:18.461Z,91.60
2023-01-19T17:05:18.417Z,89.78
2023-01-19T17:06:18.411Z,88.79
2023-01-19T17:07:19.206Z,88.37
2023-01-19T17:08:18.316Z,85.58
2023-01-19T17:09:18.308Z,92.35
2023-01-19T17:10:18.272Z,89.67
2023-01-19T17:11:18.218Z,148.49
2023-01-19T17:12:18.201Z,102.25
2023-01-19T17:13:18.152Z,97.52
2023-01-19T17:14:18.132Z,82.30
2023-01-19T17:15:18.091Z,84.23
2023-01-19T17:16:18.093Z,90.01
2023-01-19T17:17:18.027Z,156.37
2023-01-19T17:18:17.997Z,198.65
2023-01-19T17:19:17.970Z,222.07
2023-01-19T17:20:17.920Z,154.10
2023-01-19T17:21:18.015Z,107.96
2023-01-19T17:22:17.883Z,177.46
2023-01-19T17:23:17.821Z,115.18
2023-01-19T17:24:17.822Z,105.72
2023-01-19T17:25:17.774Z,108.02
2023-01-19T17:26:17.807Z,108.35
2023-01-19T17:27:17.706Z,104.85
2023-01-19T17:28:17.657Z,108.92
2023-01-19T17:29:17.703Z,102.81
2023-01-19T17:30:17.588Z,102.23
2023-01-19T17:31:17.761Z,100.47
2023-01-19T17:32:17.500Z,102.73
2023-01-19T17:33:17.464Z,98.89
2023-01-19T17:34:17.436Z,96.18
2023-01-19T17:35:17.396Z,101.44
2023-01-19T17:36:17.366Z,96.48
2023-01-19T17:37:17.332Z,100.45
2023-01-19T17:38:17.303Z,95.68
2023-01-19T17:39:17.272Z,93.64
2023-01-19T17:40:17.248Z,97.64
2023-01-19T17:41:17.247Z,93.80
2023-01-19T17:42:17.184Z,95.13
2023-01-19T17:43:17.165Z,95.66
2023-01-19T17:44:17.148Z,95.84
2023-01-19T17:45:17.111Z,93.79
2023-01-19T17:46:17.121Z,95.83
2023-01-19T17:47:17.052Z,93.39
2023-01-19T17:48:17.024Z,90.49
2023-01-19T17:49:17.015Z,86.68
2023-01-19T17:50:16.990Z,88.28
2023-01-19T17:51:16.988Z,87.82
2023-01-19T17:52:17.939Z,87.42
2023-01-19T17:53:16.898Z,84.51
2023-01-19T17:54:16.865Z,87.31
2023-01-19T17:55:16.832Z,90.47
2023-01-19T17:56:16.801Z,84.46
2023-01-19T17:57:16.800Z,88.80
2023-01-19T17:58:16.745Z,85.41
2023-01-19T17:59:16.718Z,87.46
2023-01-19T18:00:16.690Z,84.80
2023-01-19T18:01:16.772Z,86.19
2023-01-19T18:02:16.806Z,87.78
2023-01-19T18:03:16.615Z,85.16
2023-01-19T18:04:16.601Z,78.81
2023-01-19T18:05:16.561Z,85.71
2023-01-19T18:06:16.536Z,87.12
2023-01-19T18:07:16.521Z,84.40
2023-01-19T18:08:16.487Z,83.64
2023-01-19T18:09:16.458Z,82.37
2023-01-19T18:10:16.723Z,81.46
2023-01-19T18:11:16.409Z,83.34
2023-01-19T18:12:16.392Z,76.73
2023-01-19T18:13:16.389Z,81.54
2023-01-19T18:14:16.366Z,81.32
2023-01-19T18:15:17.060Z,78.64
2023-01-19T18:16:16.295Z,79.05
2023-01-19T18:17:16.269Z,79.28
2023-01-19T18:18:16.251Z,77.53
2023-01-19T18:19:16.216Z,81.48
2023-01-19T18:20:16.192Z,74.87
2023-01-19T18:21:16.159Z,74.82
2023-01-19T18:22:16.136Z,74.83
2023-01-19T18:23:16.106Z,77.71
2023-01-19T18:24:16.086Z,74.06
2023-01-19T18:25:16.083Z,75.54
2023-01-19T18:26:16.031Z,75.13
2023-01-19T18:27:16.010Z,76.71
2023-01-19T18:28:15.978Z,75.69
2023-01-19T18:29:15.979Z,76.07
2023-01-19T18:30:15.935Z,75.91
2023-01-19T18:31:15.996Z,72.39
2023-01-19T18:32:15.883Z,74.80
2023-01-19T18:33:15.861Z,74.75
2023-01-19T18:34:15.843Z,74.16
2023-01-19T18:35:15.821Z,73.13
2023-01-19T18:36:15.801Z,75.48